This is the latest recevied weather packets stored in our database for station/object IK2ILW-4. If no packets are shown the sender has not sent any weather packets the latest 10 day(s).
| Time | Temp. | Humidity | Pressure | Rain* | Wind** | Luminosity | Snow |
|---|---|---|---|---|---|---|---|
| 1787944963 | 17.22° C | 89% | 1020 hPa | 2.03 mm | - | 0 W/m² | - |
| 1787944670 | 17.22° C | 89% | 1020 hPa | 2.03 mm | - | 0 W/m² | - |
| 1787944370 | 17.22° C | 90% | 1020.3 hPa | 2.03 mm | - | 0 W/m² | - |
| 1787944058 | 17.22° C | 90% | 1020.3 hPa | 2.03 mm | - | 0 W/m² | - |
| 1787943768 | 16.67° C | 90% | 1020.3 hPa | 2.03 mm | - | 0 W/m² | - |
| 1787943455 | 16.67° C | 92% | 1020.3 hPa | 2.03 mm | - | 0 W/m² | - |
| 1787943169 | 16.67° C | 92% | 1020.3 hPa | 2.03 mm | - | 0 W/m² | - |
| 1787942858 | 16.67° C | 92% | 1020.3 hPa | 2.03 mm | - | 0 W/m² | - |
| 1787942645 | 16.67° C | 92% | 1020.3 hPa | 2.03 mm | - | 0 W/m² | - |
| 1787942270 | 16.67° C | 91% | 1020.3 hPa | 2.03 mm | - | 0 W/m² | - |
| 1787941956 | 16.67° C | 90% | 1020.3 hPa | 2.03 mm | - | 0 W/m² | - |
| 1787941670 | 16.67° C | 89% | 1020.5 hPa | 2.03 mm | - | 0 W/m² | - |
| 1787941361 | 17.22° C | 90% | 1020.5 hPa | 2.03 mm | - | 0 W/m² | - |
| 1787941069 | 17.22° C | 90% | 1020.5 hPa | 2.03 mm | - | 0 W/m² | - |
| 1787940769 | 16.67° C | 91% | 1020.7 hPa | 2.03 mm | - | 0 W/m² | - |
| 1787940466 | 16.67° C | 91% | 1020.7 hPa | 2.03 mm | - | 0 W/m² | - |
| 1787940175 | 16.67° C | 90% | 1020.7 hPa | 2.03 mm | - | 0 W/m² | - |
| 1787939873 | 17.22° C | 88% | 1020.8 hPa | 2.03 mm | - | 5 W/m² | - |
| 1787939571 | 17.22° C | 88% | 1020.8 hPa | 2.03 mm | - | 5 W/m² | - |
| 1787939257 | 17.22° C | 88% | 1020.8 hPa | 2.03 mm | - | 9 W/m² | - |
| 1787938969 | 17.22° C | 87% | 1020.8 hPa | 2.03 mm | - | 21 W/m² | - |
| 1787938663 | 17.78° C | 85% | 1020.8 hPa | 2.03 mm | - | 35 W/m² | - |
| 1787938352 | 18.33° C | 83% | 1020.8 hPa | 2.03 mm | - | 56 W/m² | - |
| 1787938068 | 18.89° C | 82% | 1020.6 hPa | 2.03 mm | - | 70 W/m² | - |
| 1787937762 | 18.89° C | 79% | 1020.6 hPa | 2.03 mm | - | 98 W/m² | - |
* Rain since midnight (hover to see other rain measurements)
** Current wind speed in m/s (hover to see current wind gust speed)